createdAt,value
2017-09-26T00:01:33.006Z,13.30
2017-09-26T00:03:59.211Z,13.30
2017-09-26T00:06:25.441Z,13.20
2017-09-26T00:08:51.684Z,13.20
2017-09-26T00:11:17.946Z,13.20
2017-09-26T00:13:44.199Z,13.30
2017-09-26T00:16:10.419Z,13.20
2017-09-26T00:18:36.692Z,13.10
2017-09-26T00:21:02.972Z,13.10
2017-09-26T00:23:29.230Z,13.10
2017-09-26T00:25:56.249Z,13.20
2017-09-26T00:28:22.489Z,13.10
2017-09-26T00:30:48.752Z,13.20
2017-09-26T00:33:15.046Z,13.20
2017-09-26T00:35:41.321Z,13.30
2017-09-26T00:38:09.525Z,13.20
2017-09-26T00:40:35.738Z,13.10
2017-09-26T00:43:02.080Z,13.10
2017-09-26T00:45:28.555Z,13.10
2017-09-26T00:47:55.667Z,13.10
2017-09-26T00:50:22.080Z,13.10
2017-09-26T00:52:48.407Z,13.10
2017-09-26T00:55:14.706Z,13.20
2017-09-26T00:57:41.749Z,13.00
2017-09-26T01:00:08.076Z,13.10
2017-09-26T01:02:34.363Z,13.10
2017-09-26T01:05:06.735Z,13.10
2017-09-26T01:07:32.995Z,13.10
2017-09-26T01:09:59.340Z,13.10
2017-09-26T01:12:26.333Z,13.10
2017-09-26T01:14:52.545Z,13.10
2017-09-26T01:17:18.910Z,13.00
2017-09-26T01:19:45.122Z,13.10
2017-09-26T01:22:11.335Z,13.00
2017-09-26T01:24:37.593Z,13.10
2017-09-26T01:27:03.822Z,13.10
2017-09-26T01:29:30.048Z,13.10
2017-09-26T01:31:56.298Z,13.10
2017-09-26T01:34:22.541Z,13.10
2017-09-26T01:36:48.865Z,13.10
2017-09-26T01:39:15.961Z,13.00
2017-09-26T01:41:42.198Z,13.00
2017-09-26T01:44:09.121Z,13.00
2017-09-26T01:46:36.193Z,13.10
2017-09-26T01:49:02.425Z,13.10
2017-09-26T01:51:28.701Z,13.10
2017-09-26T01:53:54.969Z,13.00
2017-09-26T01:56:21.202Z,13.10
2017-09-26T01:58:49.419Z,13.00
2017-09-26T02:01:15.627Z,13.00
2017-09-26T02:03:41.887Z,13.00
2017-09-26T02:06:08.148Z,13.00
2017-09-26T02:08:35.174Z,13.00
2017-09-26T02:11:01.427Z,13.00
2017-09-26T02:13:28.371Z,13.00
2017-09-26T02:15:55.371Z,12.90
2017-09-26T02:18:21.600Z,12.90
2017-09-26T02:20:47.806Z,12.90
2017-09-26T02:23:14.044Z,12.90
2017-09-26T02:25:40.268Z,12.90
2017-09-26T02:28:06.602Z,12.90
2017-09-26T02:30:32.857Z,12.90
2017-09-26T02:32:59.081Z,12.80
2017-09-26T02:35:25.368Z,12.80
2017-09-26T02:37:51.594Z,12.80
2017-09-26T02:40:17.821Z,12.80
2017-09-26T02:42:44.112Z,12.90
2017-09-26T02:45:10.344Z,12.90
2017-09-26T02:47:36.547Z,12.80
2017-09-26T02:50:02.828Z,12.80
2017-09-26T02:52:29.073Z,12.80
2017-09-26T02:54:55.337Z,12.80
2017-09-26T02:57:21.576Z,12.80
2017-09-26T02:59:47.794Z,12.90
2017-09-26T03:02:14.046Z,12.80
2017-09-26T03:04:40.273Z,12.80
2017-09-26T03:07:06.518Z,12.80
2017-09-26T03:09:32.776Z,12.80
2017-09-26T03:11:59.006Z,12.80
2017-09-26T03:14:25.235Z,12.80
2017-09-26T03:16:51.548Z,12.80
2017-09-26T03:19:18.502Z,12.80
2017-09-26T03:21:44.723Z,12.80
2017-09-26T03:24:11.056Z,12.90
2017-09-26T03:26:38.081Z,12.80
2017-09-26T03:29:04.325Z,12.80
2017-09-26T03:31:31.335Z,12.80
2017-09-26T03:33:57.660Z,12.80
2017-09-26T03:36:23.940Z,12.80
2017-09-26T03:38:50.921Z,12.80
2017-09-26T03:41:17.153Z,12.80
2017-09-26T03:43:43.414Z,12.80
2017-09-26T03:46:09.662Z,12.80
2017-09-26T03:48:36.693Z,12.80
2017-09-26T03:51:02.964Z,12.80
2017-09-26T03:53:29.238Z,12.90
2017-09-26T03:55:55.460Z,12.90
2017-09-26T03:58:21.719Z,12.90
2017-09-26T04:00:48.046Z,12.80
2017-09-26T04:03:14.298Z,12.90
2017-09-26T04:05:41.354Z,12.80
2017-09-26T04:08:07.660Z,12.70
2017-09-26T04:10:33.880Z,12.80
2017-09-26T04:13:00.119Z,12.80
2017-09-26T04:15:26.442Z,12.80
2017-09-26T04:17:52.774Z,12.70
2017-09-26T04:20:19.762Z,12.70
2017-09-26T04:22:46.080Z,12.60
2017-09-26T04:25:13.064Z,12.60
2017-09-26T04:27:39.333Z,12.60
2017-09-26T04:30:06.347Z,12.60
2017-09-26T04:32:32.567Z,12.60
2017-09-26T04:34:58.845Z,12.60
2017-09-26T04:37:25.855Z,12.60
2017-09-26T04:39:52.221Z,12.50
2017-09-26T04:42:18.915Z,12.50
2017-09-26T04:44:45.177Z,12.50
2017-09-26T04:47:11.444Z,12.50
2017-09-26T04:49:38.460Z,12.40
2017-09-26T04:52:05.506Z,12.40
2017-09-26T04:54:31.748Z,12.40
2017-09-26T04:56:58.859Z,12.50
2017-09-26T04:59:25.214Z,12.50
2017-09-26T05:01:51.548Z,12.50
2017-09-26T05:04:18.703Z,12.50
2017-09-26T05:06:45.872Z,12.50
2017-09-26T05:09:12.944Z,12.50
2017-09-26T05:11:39.202Z,12.40
2017-09-26T05:14:05.576Z,12.50
2017-09-26T05:16:32.574Z,12.50
2017-09-26T05:18:58.820Z,12.50
2017-09-26T05:21:25.144Z,12.60
2017-09-26T05:23:51.446Z,12.60
2017-09-26T05:26:17.719Z,12.60
2017-09-26T05:28:44.030Z,12.60
2017-09-26T05:31:10.295Z,12.70
2017-09-26T05:33:37.351Z,12.80
2017-09-26T05:36:04.355Z,12.80
2017-09-26T05:38:30.652Z,12.80
2017-09-26T05:40:56.975Z,12.80
2017-09-26T05:43:23.267Z,12.90
2017-09-26T05:45:49.603Z,12.90
2017-09-26T05:48:15.919Z,13.00
2017-09-26T05:50:42.219Z,13.00
2017-09-26T05:53:08.604Z,13.10
2017-09-26T05:55:34.839Z,13.10
2017-09-26T05:58:01.792Z,13.10
2017-09-26T06:00:28.775Z,13.30
2017-09-26T06:02:56.072Z,13.20
2017-09-26T06:05:22.336Z,13.20
2017-09-26T06:07:48.616Z,13.20
2017-09-26T06:10:15.044Z,13.20
2017-09-26T06:12:41.328Z,13.20
2017-09-26T06:15:08.436Z,13.40
2017-09-26T06:17:34.785Z,13.40
2017-09-26T06:20:01.148Z,13.50
2017-09-26T06:22:27.468Z,13.60
2017-09-26T06:24:54.488Z,13.70
2017-09-26T06:27:20.710Z,13.60
2017-09-26T06:29:46.953Z,13.70
2017-09-26T06:32:13.198Z,13.70
2017-09-26T06:34:40.169Z,13.70
2017-09-26T06:37:06.445Z,13.70
2017-09-26T06:39:32.739Z,13.70
2017-09-26T06:41:59.005Z,13.70
2017-09-26T06:44:25.391Z,13.70
2017-09-26T06:46:51.678Z,13.70
2017-09-26T06:49:17.954Z,13.70
2017-09-26T06:51:44.297Z,13.60
2017-09-26T06:54:10.569Z,13.60
2017-09-26T06:56:37.617Z,13.60
2017-09-26T06:59:04.667Z,13.70
2017-09-26T07:01:30.982Z,13.60
2017-09-26T07:03:57.349Z,13.70
2017-09-26T07:06:23.938Z,13.80
2017-09-26T07:08:50.218Z,13.70
2017-09-26T07:11:16.553Z,13.80
2017-09-26T07:13:42.880Z,13.80
2017-09-26T07:16:09.140Z,13.90
2017-09-26T07:18:35.444Z,14.00
2017-09-26T07:21:01.762Z,14.00
2017-09-26T07:23:28.763Z,14.20
2017-09-26T07:25:55.196Z,14.20
2017-09-26T07:28:21.533Z,14.30
2017-09-26T07:30:47.892Z,14.50
2017-09-26T07:33:14.174Z,14.60
2017-09-26T07:35:40.477Z,14.60
2017-09-26T07:38:06.856Z,14.60
2017-09-26T07:40:33.113Z,14.80
2017-09-26T07:43:00.164Z,14.80
2017-09-26T07:45:26.477Z,14.80
2017-09-26T07:47:52.753Z,14.80
2017-09-26T07:50:19.785Z,14.80
2017-09-26T07:52:46.817Z,14.70
2017-09-26T07:55:13.171Z,14.70
2017-09-26T07:57:40.177Z,15.00
2017-09-26T08:00:06.428Z,15.10
2017-09-26T08:02:33.229Z,15.10
2017-09-26T08:05:01.048Z,14.90
2017-09-26T08:07:28.696Z,14.90
2017-09-26T08:09:55.818Z,14.90
2017-09-26T08:12:22.042Z,15.00
2017-09-26T08:14:48.428Z,15.00
2017-09-26T08:17:14.762Z,15.00
2017-09-26T08:19:41.751Z,15.20
2017-09-26T08:22:08.010Z,15.20
2017-09-26T08:24:34.217Z,15.30
2017-09-26T08:27:00.432Z,15.30
2017-09-26T08:29:26.685Z,15.50
2017-09-26T08:31:52.947Z,15.80
2017-09-26T08:34:19.986Z,16.10
2017-09-26T08:36:47.004Z,16.20
2017-09-26T08:39:14.026Z,16.30
2017-09-26T08:41:40.342Z,16.30
2017-09-26T08:44:06.674Z,16.60
2017-09-26T08:46:32.987Z,16.70
2017-09-26T08:49:00.064Z,16.70
2017-09-26T08:51:26.288Z,16.70
2017-09-26T08:53:52.583Z,16.80
2017-09-26T08:56:19.626Z,16.90
2017-09-26T08:58:45.884Z,16.90
2017-09-26T09:01:12.114Z,17.10
2017-09-26T09:03:38.443Z,17.10
2017-09-26T09:06:04.770Z,17.10
2017-09-26T09:08:31.122Z,17.10
2017-09-26T09:10:57.412Z,17.10
2017-09-26T09:13:24.389Z,17.20
2017-09-26T09:15:50.683Z,17.20
2017-09-26T09:18:16.974Z,17.20
2017-09-26T09:20:43.300Z,17.30
2017-09-26T09:23:09.724Z,17.40
2017-09-26T09:25:36.134Z,17.60
2017-09-26T09:28:03.091Z,17.60
2017-09-26T09:30:29.367Z,17.50
2017-09-26T09:32:55.832Z,17.70
2017-09-26T09:35:22.849Z,17.70
2017-09-26T09:37:49.125Z,17.70
2017-09-26T09:40:15.646Z,17.60
2017-09-26T09:42:42.719Z,17.50
2017-09-26T09:45:08.989Z,17.50
2017-09-26T09:47:35.241Z,17.50
2017-09-26T09:50:01.511Z,17.90
2017-09-26T09:52:28.041Z,18.00
2017-09-26T09:54:54.356Z,18.30
2017-09-26T09:57:20.597Z,18.40
2017-09-26T09:59:47.141Z,18.50
2017-09-26T10:02:13.445Z,18.50
2017-09-26T10:04:40.505Z,18.50
2017-09-26T10:07:07.556Z,18.60
2017-09-26T10:09:33.782Z,18.60
2017-09-26T10:12:00.744Z,18.60
2017-09-26T10:14:26.989Z,18.60
2017-09-26T10:16:53.199Z,18.50
2017-09-26T10:19:19.437Z,18.50
2017-09-26T10:21:46.754Z,18.60
2017-09-26T10:24:13.008Z,18.60
2017-09-26T10:26:39.230Z,18.60
2017-09-26T10:29:05.526Z,18.50
2017-09-26T10:31:31.762Z,18.40
2017-09-26T10:33:58.024Z,18.60
2017-09-26T10:36:24.348Z,18.90
2017-09-26T10:38:51.394Z,19.00
2017-09-26T10:41:18.886Z,19.00
2017-09-26T10:43:45.219Z,18.90
2017-09-26T10:46:11.477Z,19.10
2017-09-26T10:48:37.748Z,19.30
2017-09-26T10:51:04.019Z,19.50
2017-09-26T10:53:30.265Z,19.50
2017-09-26T10:55:56.607Z,19.40
2017-09-26T10:58:23.028Z,19.40
2017-09-26T11:00:49.351Z,19.70
2017-09-26T11:03:15.717Z,19.90
2017-09-26T11:05:41.989Z,19.70
2017-09-26T11:08:09.323Z,19.80
2017-09-26T11:10:35.559Z,20.00
2017-09-26T11:13:01.897Z,20.00
2017-09-26T11:15:28.183Z,20.40
2017-09-26T11:17:55.151Z,21.70
2017-09-26T11:20:21.409Z,21.70
2017-09-26T11:22:47.700Z,21.40
2017-09-26T11:25:14.657Z,22.10
2017-09-26T11:27:40.897Z,22.00
2017-09-26T11:30:07.087Z,23.40
2017-09-26T11:32:33.388Z,23.20
2017-09-26T11:34:59.678Z,22.10
2017-09-26T11:37:26.612Z,22.30
2017-09-26T11:39:53.630Z,21.30
2017-09-26T11:42:19.824Z,21.30
2017-09-26T11:44:46.048Z,21.50
2017-09-26T11:47:12.276Z,21.70
2017-09-26T11:49:38.696Z,21.90
2017-09-26T11:52:05.021Z,22.10
2017-09-26T11:54:31.321Z,22.00
2017-09-26T11:56:57.547Z,21.90
2017-09-26T11:59:23.797Z,21.70
2017-09-26T12:01:50.832Z,20.70
2017-09-26T12:04:17.903Z,20.30
2017-09-26T12:06:44.125Z,20.30
2017-09-26T12:09:11.143Z,20.10
2017-09-26T12:11:37.383Z,20.00
2017-09-26T12:14:05.751Z,20.20
2017-09-26T12:16:32.120Z,20.40
2017-09-26T12:18:58.460Z,20.20
2017-09-26T12:21:25.005Z,19.70
2017-09-26T12:23:51.324Z,19.70
2017-09-26T12:26:17.547Z,19.90
2017-09-26T12:28:43.876Z,19.60
2017-09-26T12:31:10.129Z,19.50
2017-09-26T12:33:36.404Z,19.40
2017-09-26T12:36:02.696Z,19.30
2017-09-26T12:38:28.913Z,19.20
2017-09-26T12:40:55.302Z,18.90
2017-09-26T12:43:22.348Z,18.60
2017-09-26T12:45:48.712Z,18.60
2017-09-26T12:48:14.971Z,18.80
2017-09-26T12:50:41.279Z,18.60
2017-09-26T12:53:07.558Z,18.30
2017-09-26T12:55:33.857Z,18.50
2017-09-26T12:58:00.104Z,18.60
2017-09-26T13:00:26.361Z,18.70
2017-09-26T13:02:53.375Z,18.60
2017-09-26T13:05:19.612Z,18.60
2017-09-26T13:07:46.601Z,18.50
2017-09-26T13:10:13.589Z,18.70
2017-09-26T13:12:39.912Z,18.70
2017-09-26T13:15:06.569Z,18.60
2017-09-26T13:17:32.848Z,18.80
2017-09-26T13:19:59.879Z,19.10
2017-09-26T13:24:59.983Z,18.70
2017-09-26T13:27:26.217Z,18.70
2017-09-26T13:29:52.439Z,18.80
2017-09-26T13:32:19.198Z,19.00
2017-09-26T13:34:45.753Z,19.30
2017-09-26T13:37:11.995Z,20.30
2017-09-26T13:39:38.937Z,21.70
2017-09-26T13:42:05.939Z,21.30
2017-09-26T13:44:32.561Z,21.30
2017-09-26T13:46:58.770Z,21.10
2017-09-26T13:49:25.080Z,21.00
2017-09-26T13:51:52.125Z,21.30
2017-09-26T13:54:19.133Z,21.00
2017-09-26T13:56:45.396Z,21.00
2017-09-26T13:59:11.676Z,21.10
2017-09-26T14:01:37.976Z,20.70
2017-09-26T14:04:05.018Z,19.90
2017-09-26T14:06:31.362Z,19.90
2017-09-26T14:08:57.620Z,19.60
2017-09-26T14:11:24.032Z,19.40
2017-09-26T14:13:50.339Z,19.30
2017-09-26T14:16:17.452Z,19.20
2017-09-26T14:18:43.726Z,19.20
2017-09-26T14:21:10.736Z,19.10
2017-09-26T14:23:37.060Z,19.10
2017-09-26T14:26:03.319Z,18.90
2017-09-26T14:28:29.540Z,18.80
2017-09-26T14:30:55.743Z,19.00
2017-09-26T14:33:29.044Z,18.90
2017-09-26T14:35:56.082Z,19.10
2017-09-26T14:38:22.308Z,19.00
2017-09-26T14:40:48.547Z,19.70
2017-09-26T14:43:14.804Z,19.90
2017-09-26T14:45:41.054Z,19.90
2017-09-26T14:48:07.456Z,20.20
2017-09-26T14:50:35.057Z,20.90
2017-09-26T14:53:01.380Z,21.70
2017-09-26T14:55:28.472Z,21.20
2017-09-26T14:57:54.725Z,21.20
2017-09-26T15:00:21.000Z,20.90
2017-09-26T15:02:47.400Z,20.70
2017-09-26T15:05:13.661Z,21.90
2017-09-26T15:07:40.083Z,21.50
2017-09-26T15:10:06.348Z,20.40
2017-09-26T15:12:32.677Z,19.90
2017-09-26T15:14:59.044Z,19.30
2017-09-26T15:17:25.318Z,19.30
2017-09-26T15:19:51.801Z,19.20
2017-09-26T15:22:18.491Z,18.90
2017-09-26T15:24:44.753Z,18.50
2017-09-26T15:27:11.391Z,18.50
2017-09-26T15:29:37.762Z,18.20
2017-09-26T15:32:04.858Z,17.90
2017-09-26T15:34:31.344Z,17.90
2017-09-26T15:36:57.623Z,17.90
2017-09-26T15:39:23.882Z,18.00
2017-09-26T15:41:50.295Z,17.90
2017-09-26T15:44:16.605Z,17.80
2017-09-26T15:46:42.850Z,17.70
2017-09-26T15:49:09.101Z,17.60
2017-09-26T15:51:35.434Z,17.50
2017-09-26T15:54:01.665Z,17.50
2017-09-26T15:56:28.096Z,17.50
2017-09-26T15:58:54.443Z,17.50
2017-09-26T16:01:20.726Z,17.50
2017-09-26T16:03:47.070Z,17.30
2017-09-26T16:06:13.324Z,17.30
2017-09-26T16:08:39.685Z,17.30
2017-09-26T16:11:06.698Z,17.30
2017-09-26T16:13:33.049Z,17.30
2017-09-26T16:15:59.465Z,17.30
2017-09-26T16:18:25.729Z,17.40
2017-09-26T16:20:52.731Z,17.10
2017-09-26T16:23:19.043Z,17.10
2017-09-26T16:25:45.375Z,17.20
2017-09-26T16:28:11.794Z,17.10
2017-09-26T16:30:38.093Z,17.00
2017-09-26T16:33:05.085Z,17.00
2017-09-26T16:35:31.336Z,17.00
2017-09-26T16:37:57.605Z,17.00
2017-09-26T16:40:24.653Z,16.90
2017-09-26T16:42:51.660Z,16.90
2017-09-26T16:45:17.952Z,16.90
2017-09-26T16:47:44.258Z,16.90
2017-09-26T16:50:11.222Z,16.90
2017-09-26T16:52:38.206Z,16.80
2017-09-26T16:55:04.490Z,16.80
2017-09-26T16:57:31.449Z,16.80
2017-09-26T16:59:57.738Z,16.80
2017-09-26T17:02:23.975Z,16.80
2017-09-26T17:04:50.179Z,16.70
2017-09-26T17:07:16.448Z,16.70
2017-09-26T17:09:43.524Z,16.80
2017-09-26T17:12:09.776Z,16.80
2017-09-26T17:14:35.974Z,16.70
2017-09-26T17:17:02.174Z,16.70
2017-09-26T17:19:29.181Z,16.60
2017-09-26T17:21:55.452Z,16.60
2017-09-26T17:24:22.393Z,16.60
2017-09-26T17:26:48.697Z,16.50
2017-09-26T17:29:14.954Z,16.60
2017-09-26T17:31:41.459Z,16.60
2017-09-26T17:34:07.685Z,16.50
2017-09-26T17:36:34.007Z,16.50
2017-09-26T17:39:00.265Z,16.40
2017-09-26T17:41:26.609Z,16.30
2017-09-26T17:43:52.974Z,16.20
2017-09-26T17:46:19.249Z,16.20
2017-09-26T17:48:45.457Z,16.10
2017-09-26T17:51:11.694Z,16.00
2017-09-26T17:53:37.977Z,16.00
2017-09-26T17:56:04.227Z,15.90
2017-09-26T17:58:30.429Z,15.90
2017-09-26T18:00:57.430Z,15.90
2017-09-26T18:03:23.672Z,15.80
2017-09-26T18:05:50.752Z,15.80
2017-09-26T18:08:17.842Z,15.80
2017-09-26T18:10:44.151Z,15.80
2017-09-26T18:13:10.405Z,15.80
2017-09-26T18:15:36.638Z,15.80
2017-09-26T18:18:02.889Z,15.70
2017-09-26T18:20:29.172Z,15.70
2017-09-26T18:22:55.472Z,15.70
2017-09-26T18:25:21.951Z,15.70
2017-09-26T18:27:48.196Z,15.60
2017-09-26T18:30:14.514Z,15.60
2017-09-26T18:32:40.768Z,15.50
2017-09-26T18:35:06.997Z,15.50
2017-09-26T18:37:33.356Z,15.50
2017-09-26T18:40:00.379Z,15.40
2017-09-26T18:42:26.675Z,15.40
2017-09-26T18:44:52.899Z,15.40
2017-09-26T18:47:19.155Z,15.40
2017-09-26T18:49:45.391Z,15.40
2017-09-26T18:52:12.567Z,15.30
2017-09-26T18:54:38.749Z,15.30
2017-09-26T18:57:04.994Z,15.20
2017-09-26T18:59:31.263Z,15.20
2017-09-26T19:01:58.510Z,15.10
2017-09-26T19:04:24.743Z,15.10
2017-09-26T19:06:52.311Z,15.00
2017-09-26T19:09:19.285Z,15.00
2017-09-26T19:11:45.490Z,14.90
2017-09-26T19:14:12.520Z,14.90
2017-09-26T19:16:38.805Z,14.90
2017-09-26T19:19:05.397Z,14.80
2017-09-26T19:21:32.418Z,14.80
2017-09-26T19:23:58.687Z,14.80
2017-09-26T19:26:25.691Z,14.70
2017-09-26T19:28:52.947Z,14.70
2017-09-26T19:31:19.193Z,14.70
2017-09-26T19:33:45.399Z,14.70
2017-09-26T19:36:11.657Z,14.70
2017-09-26T19:38:38.655Z,14.60
2017-09-26T19:41:04.905Z,14.60
2017-09-26T19:43:31.223Z,14.60
2017-09-26T19:45:57.504Z,14.50
2017-09-26T19:48:24.781Z,14.50
2017-09-26T19:50:51.077Z,14.50
2017-09-26T19:53:18.028Z,14.50
2017-09-26T19:55:45.028Z,14.50
2017-09-26T19:58:11.247Z,14.40
2017-09-26T20:00:37.520Z,14.40
2017-09-26T20:03:03.976Z,14.40
2017-09-26T20:05:30.465Z,14.40
2017-09-26T20:07:56.767Z,14.40
2017-09-26T20:10:22.987Z,14.40
2017-09-26T20:12:49.170Z,14.40
2017-09-26T20:15:15.470Z,14.40
2017-09-26T20:17:42.229Z,14.30
2017-09-26T20:20:09.574Z,14.30
2017-09-26T20:22:35.834Z,14.30
2017-09-26T20:25:02.037Z,14.30
2017-09-26T20:32:02.788Z,14.20
2017-09-26T20:34:29.135Z,14.10
2017-09-26T20:36:55.339Z,14.20
2017-09-26T20:39:22.320Z,14.20
2017-09-26T20:41:48.525Z,14.10
2017-09-26T20:44:14.690Z,14.00
2017-09-26T20:46:40.912Z,14.00
2017-09-26T20:49:07.104Z,14.00
2017-09-26T20:51:33.323Z,14.00
2017-09-26T20:54:03.392Z,14.10
2017-09-26T20:56:29.723Z,14.10
2017-09-26T20:58:55.927Z,14.20
2017-09-26T21:01:22.174Z,14.10
2017-09-26T21:03:48.419Z,14.10
2017-09-26T21:06:14.628Z,14.00
2017-09-26T21:08:40.966Z,14.10
2017-09-26T21:11:07.185Z,14.00
2017-09-26T21:13:36.466Z,14.00
2017-09-26T21:16:02.681Z,14.00
2017-09-26T21:18:28.897Z,14.10
2017-09-26T21:20:55.135Z,14.10
2017-09-26T21:23:21.342Z,14.20
2017-09-26T21:25:48.309Z,14.20
2017-09-26T21:28:14.475Z,14.20
2017-09-26T21:30:40.689Z,14.20
2017-09-26T21:33:06.987Z,14.20
2017-09-26T21:35:33.245Z,14.20
2017-09-26T21:37:59.482Z,14.30
2017-09-26T21:40:25.734Z,14.40
2017-09-26T21:42:52.719Z,14.20
2017-09-26T21:45:18.955Z,14.10
2017-09-26T21:47:45.322Z,14.20
2017-09-26T21:50:11.619Z,14.20
2017-09-26T21:52:37.901Z,14.10
2017-09-26T21:55:04.125Z,14.00
2017-09-26T21:57:30.493Z,14.00
2017-09-26T21:59:56.677Z,14.20
2017-09-26T22:02:22.961Z,14.20
2017-09-26T22:04:49.155Z,14.10
2017-09-26T22:07:16.087Z,14.10
2017-09-26T22:09:42.309Z,14.00
2017-09-26T22:12:08.583Z,14.10
2017-09-26T22:14:34.881Z,14.10
2017-09-26T22:17:01.070Z,14.10
2017-09-26T22:19:27.355Z,14.20
2017-09-26T22:21:54.319Z,14.20
2017-09-26T22:24:20.538Z,14.10
2017-09-26T22:26:46.793Z,14.20
2017-09-26T22:29:13.018Z,14.20
2017-09-26T22:31:39.210Z,14.30
2017-09-26T22:34:05.404Z,14.30
2017-09-26T22:36:31.715Z,14.30
2017-09-26T22:38:57.937Z,14.40
2017-09-26T22:41:24.107Z,14.40
2017-09-26T22:43:50.418Z,14.40
2017-09-26T22:46:16.860Z,14.30
2017-09-26T22:48:43.081Z,14.30
2017-09-26T22:51:09.296Z,14.30
2017-09-26T22:53:35.544Z,14.40
2017-09-26T22:56:01.806Z,14.40
2017-09-26T22:58:28.116Z,14.30
2017-09-26T23:00:54.368Z,14.40
2017-09-26T23:03:21.329Z,14.40
2017-09-26T23:05:47.555Z,14.40
2017-09-26T23:08:13.809Z,14.30
2017-09-26T23:10:40.022Z,14.30
2017-09-26T23:13:06.211Z,14.30
2017-09-26T23:15:32.450Z,14.30
2017-09-26T23:17:59.398Z,14.30
2017-09-26T23:20:26.321Z,14.40
2017-09-26T23:22:52.541Z,14.40
2017-09-26T23:25:18.775Z,14.40
2017-09-26T23:27:45.253Z,14.30
2017-09-26T23:30:12.724Z,14.30
2017-09-26T23:32:39.124Z,14.30
2017-09-26T23:35:06.108Z,14.30
2017-09-26T23:37:32.722Z,14.30
2017-09-26T23:39:58.938Z,14.40
2017-09-26T23:42:25.458Z,14.30
2017-09-26T23:44:51.708Z,14.30
2017-09-26T23:47:18.718Z,14.20
2017-09-26T23:49:44.985Z,14.20
2017-09-26T23:52:12.053Z,14.30
2017-09-26T23:54:38.254Z,14.20
2017-09-26T23:57:04.430Z,14.20
2017-09-26T23:59:30.680Z,14.20
